Time;durP1;ratioP1;P1;durP2;ratioP2;P2;SDS_P1;SDS_P2;PMS_P1;PMS_P2;Temp;Humidity;BMP_temperature;BMP_pressure;BME280_temperature;BME280_humidity;BME280_pressure;Samples;Min_cycle;Max_cycle;Signal;HPM_P1;HPM_P2
2023/07/23 00:02:10;;;;;;;4.53;3.97;;;16.00;99.90;;;;;;4941237;28;20136;-71
2023/07/23 00:04:37;;;;;;;7.40;4.20;;;16.00;99.90;;;;;;4943425;28;20034;-71
2023/07/23 00:07:04;;;;;;;7.30;4.70;;;16.00;99.90;;;;;;4941343;28;20429;-71
2023/07/23 00:09:31;;;;;;;4.63;2.95;;;16.00;99.90;;;;;;4961114;28;20035;-72
2023/07/23 00:11:57;;;;;;;6.28;4.47;;;16.00;99.90;;;;;;4959211;28;20024;-72
2023/07/23 00:14:24;;;;;;;4.93;3.55;;;16.00;99.90;;;;;;4959901;28;20355;-71
2023/07/23 00:16:50;;;;;;;4.55;3.17;;;16.00;99.90;;;;;;4928077;28;20425;-72
2023/07/23 00:19:19;;;;;;;5.95;3.30;;;16.00;99.90;;;;;;4929024;28;20041;-72
2023/07/23 00:21:47;;;;;;;7.07;4.45;;;16.00;99.90;;;;;;4959948;28;20038;-71
2023/07/23 00:24:19;;;;;;;6.20;4.47;;;16.00;99.90;;;;;;4962084;28;20470;-72
2023/07/23 00:26:46;;;;;;;5.75;3.83;;;16.00;99.90;;;;;;4925164;28;20033;-72
2023/07/23 00:29:12;;;;;;;6.68;4.07;;;16.00;99.90;;;;;;4959607;28;20601;-72
2023/07/23 00:31:39;;;;;;;6.72;4.65;;;16.00;99.90;;;;;;4925984;28;20042;-72
2023/07/23 00:34:06;;;;;;;6.50;4.22;;;15.90;99.90;;;;;;4910772;28;20034;-72
2023/07/23 00:36:33;;;;;;;4.05;3.55;;;15.90;99.90;;;;;;4924100;28;20054;-72
2023/07/23 00:38:59;;;;;;;5.13;4.00;;;15.80;99.90;;;;;;4907781;28;20583;-71
2023/07/23 00:41:26;;;;;;;5.88;4.20;;;15.90;99.90;;;;;;4942252;28;20042;-72
2023/07/23 00:43:52;;;;;;;5.75;4.03;;;15.90;99.90;;;;;;4940187;28;20042;-71
2023/07/23 00:46:19;;;;;;;5.75;3.90;;;15.80;99.90;;;;;;4941040;28;20401;-72
2023/07/23 00:48:46;;;;;;;4.50;3.50;;;15.80;99.90;;;;;;4941056;28;20042;-71
2023/07/23 00:51:12;;;;;;;4.68;3.38;;;15.80;99.90;;;;;;4941644;28;20651;-72
2023/07/23 00:53:38;;;;;;;5.97;4.72;;;15.80;99.90;;;;;;4925964;28;20067;-72
2023/07/23 00:56:05;;;;;;;6.40;3.60;;;15.80;99.90;;;;;;4941521;28;20033;-72
2023/07/23 00:58:32;;;;;;;4.97;3.92;;;15.80;99.90;;;;;;4958315;28;20442;-71
2023/07/23 01:01:00;;;;;;;6.72;4.45;;;15.80;99.90;;;;;;4924689;28;20054;-71
2023/07/23 01:03:26;;;;;;;6.68;4.13;;;15.80;99.90;;;;;;4942821;28;20382;-72
2023/07/23 01:05:59;;;;;;;6.18;4.82;;;15.80;99.90;;;;;;4959340;28;20473;-72
2023/07/23 01:08:26;;;;;;;5.53;4.95;;;15.80;99.90;;;;;;4941183;28;20035;-71
2023/07/23 01:10:53;;;;;;;5.18;4.15;;;15.80;99.90;;;;;;4925740;28;20034;-72
2023/07/23 01:13:21;;;;;;;5.32;4.65;;;15.80;99.90;;;;;;4940685;28;20038;-72
2023/07/23 01:15:48;;;;;;;8.85;5.10;;;15.80;99.90;;;;;;4925326;28;20253;-71
2023/07/23 01:18:17;;;;;;;6.50;5.25;;;15.80;99.90;;;;;;4941453;28;20049;-72
2023/07/23 01:20:45;;;;;;;6.50;4.93;;;15.90;99.90;;;;;;4940559;28;20552;-72
2023/07/23 01:23:11;;;;;;;6.35;4.53;;;15.90;99.90;;;;;;4941227;28;20038;-72
2023/07/23 01:25:38;;;;;;;9.43;6.30;;;15.90;99.90;;;;;;4924765;28;20038;-71
2023/07/23 01:28:05;;;;;;;7.75;5.05;;;15.90;99.90;;;;;;4941645;28;20038;-71
2023/07/23 01:30:32;;;;;;;9.73;5.07;;;15.90;99.90;;;;;;4956842;28;20038;-72
2023/07/23 01:32:59;;;;;;;7.57;5.07;;;15.90;99.90;;;;;;4941387;28;20394;-71
2023/07/23 01:35:26;;;;;;;7.07;5.32;;;15.90;99.90;;;;;;4940573;28;20112;-71
2023/07/23 01:37:52;;;;;;;6.13;5.40;;;15.90;99.90;;;;;;4941188;28;20035;-72
2023/07/23 01:40:19;;;;;;;6.85;4.72;;;15.90;99.90;;;;;;4939106;28;20034;-72
2023/07/23 01:42:46;;;;;;;4.45;3.95;;;15.90;99.90;;;;;;4957977;28;20034;-72
2023/07/23 01:45:13;;;;;;;5.82;4.45;;;15.90;99.90;;;;;;4939700;28;20050;-71
2023/07/23 01:47:40;;;;;;;5.30;4.53;;;15.90;99.90;;;;;;4942009;28;20042;-71
2023/07/23 01:50:07;;;;;;;5.80;4.53;;;15.90;99.90;;;;;;4928216;28;20256;-72
2023/07/23 01:52:34;;;;;;;5.97;4.10;;;15.90;99.90;;;;;;4942776;28;20035;-71
2023/07/23 01:55:00;;;;;;;7.13;5.40;;;15.90;99.90;;;;;;4942997;28;20512;-71
2023/07/23 01:57:26;;;;;;;7.80;4.90;;;15.80;99.90;;;;;;4925921;28;20031;-73
2023/07/23 01:59:53;;;;;;;7.50;4.68;;;15.90;99.90;;;;;;4928267;28;20043;-73
2023/07/23 02:02:20;;;;;;;5.78;4.10;;;15.90;99.90;;;;;;4962860;28;20497;-71
2023/07/23 02:04:46;;;;;;;5.72;3.70;;;15.90;99.90;;;;;;4940062;28;20038;-71
2023/07/23 02:07:14;;;;;;;4.88;3.80;;;15.90;99.90;;;;;;4955963;28;20037;-72
2023/07/23 02:09:41;;;;;;;4.70;3.20;;;15.90;99.90;;;;;;4923411;28;20506;-71
2023/07/23 02:12:08;;;;;;;6.18;3.58;;;15.90;99.90;;;;;;4938489;28;20034;-71
2023/07/23 02:14:34;;;;;;;7.00;4.30;;;15.90;99.90;;;;;;4939408;28;20038;-71
2023/07/23 02:17:01;;;;;;;4.45;3.78;;;15.90;99.90;;;;;;4923406;28;20046;-72
2023/07/23 02:19:28;;;;;;;5.28;3.95;;;15.80;99.90;;;;;;4925832;28;20038;-71
2023/07/23 02:21:55;;;;;;;8.65;5.78;;;15.80;99.90;;;;;;4938459;28;20046;-72
2023/07/23 02:24:22;;;;;;;5.70;4.50;;;15.70;99.90;;;;;;4939477;28;20035;-72
2023/07/23 02:26:48;;;;;;;4.40;3.58;;;15.70;99.90;;;;;;4922800;28;20465;-72
2023/07/23 02:29:15;;;;;;;8.15;4.72;;;15.70;99.90;;;;;;4921649;28;20268;-71
2023/07/23 02:31:41;;;;;;;5.78;4.72;;;15.70;99.90;;;;;;4923552;28;20485;-71
2023/07/23 02:34:08;;;;;;;4.93;4.00;;;15.70;99.90;;;;;;4958187;28;20227;-73
2023/07/23 02:36:35;;;;;;;5.95;4.38;;;15.70;99.90;;;;;;4937862;28;20042;-72
2023/07/23 02:39:02;;;;;;;5.93;4.40;;;15.70;99.90;;;;;;4955749;28;20477;-71
2023/07/23 02:41:29;;;;;;;5.18;4.13;;;15.70;99.90;;;;;;4924503;28;20039;-73
2023/07/23 02:43:55;;;;;;;5.47;4.32;;;15.70;99.90;;;;;;4939056;28;20520;-72
2023/07/23 02:46:21;;;;;;;6.60;4.53;;;15.70;99.90;;;;;;4936959;28;20432;-72
2023/07/23 02:48:48;;;;;;;6.38;4.82;;;15.70;99.90;;;;;;4931800;28;20367;-71
2023/07/23 02:51:14;;;;;;;5.43;4.43;;;15.70;99.90;;;;;;4922584;28;20405;-72
2023/07/23 02:53:40;;;;;;;6.03;5.38;;;15.70;99.90;;;;;;4940035;28;20035;-72
2023/07/23 02:56:07;;;;;;;5.53;5.03;;;15.70;99.90;;;;;;4937852;28;20053;-73
2023/07/23 02:58:33;;;;;;;7.22;5.15;;;15.70;99.90;;;;;;4922622;28;20039;-72
2023/07/23 03:01:00;;;;;;;6.03;5.00;;;15.70;99.90;;;;;;4922885;28;20042;-72
2023/07/23 03:03:27;;;;;;;5.40;4.03;;;15.70;99.90;;;;;;4938504;28;20050;-72
2023/07/23 03:05:54;;;;;;;5.93;4.50;;;15.70;99.90;;;;;;4938513;28;20045;-72
2023/07/23 03:08:20;;;;;;;5.57;4.38;;;15.70;99.90;;;;;;4922367;28;20069;-71
2023/07/23 03:10:47;;;;;;;5.72;4.00;;;15.70;99.90;;;;;;4954617;28;20831;-72
2023/07/23 03:13:15;;;;;;;5.93;4.35;;;15.70;99.90;;;;;;4924047;28;20240;-73
2023/07/23 03:15:42;;;;;;;7.20;4.90;;;15.70;99.90;;;;;;4939205;28;20541;-72
2023/07/23 03:18:08;;;;;;;5.03;4.28;;;15.70;99.90;;;;;;4955183;28;20131;-72
2023/07/23 03:20:35;;;;;;;4.70;4.10;;;15.80;99.90;;;;;;4957484;28;20042;-72
2023/07/23 03:23:02;;;;;;;5.10;4.43;;;15.70;99.90;;;;;;4926756;28;20058;-72
2023/07/23 03:25:28;;;;;;;6.18;4.32;;;15.70;99.90;;;;;;4939271;28;20465;-71
2023/07/23 03:27:59;;;;;;;5.88;4.75;;;15.80;99.90;;;;;;4955574;28;21393;-72
2023/07/23 03:30:26;;;;;;;7.82;4.10;;;15.80;99.90;;;;;;4942326;28;20517;-72
2023/07/23 03:32:53;;;;;;;6.68;4.93;;;15.80;99.90;;;;;;4938119;28;20023;-73
2023/07/23 03:35:20;;;;;;;5.15;4.65;;;15.80;99.90;;;;;;4939055;28;20034;-72
2023/07/23 03:37:47;;;;;;;5.75;4.40;;;15.80;99.90;;;;;;4937338;28;20027;-72
2023/07/23 03:40:14;;;;;;;5.35;4.35;;;15.80;99.90;;;;;;4908882;28;20485;-73
2023/07/23 03:42:40;;;;;;;5.78;4.50;;;15.80;99.90;;;;;;4954673;28;20046;-72
2023/07/23 03:45:08;;;;;;;4.93;3.58;;;15.80;99.90;;;;;;4938613;28;20027;-72
2023/07/23 03:47:35;;;;;;;6.82;4.65;;;15.80;99.90;;;;;;4937410;28;20069;-72
2023/07/23 03:50:01;;;;;;;6.38;4.65;;;15.80;99.90;;;;;;4940290;28;20046;-73
2023/07/23 03:52:28;;;;;;;6.13;4.75;;;15.80;99.90;;;;;;4940601;28;20389;-72
2023/07/23 03:54:55;;;;;;;5.95;3.83;;;15.80;99.90;;;;;;4939767;28;20038;-71
2023/07/23 03:57:22;;;;;;;4.90;4.40;;;15.80;99.90;;;;;;4922923;28;20043;-72
2023/07/23 03:59:49;;;;;;;6.78;4.47;;;15.80;99.90;;;;;;4944882;28;20200;-72
2023/07/23 04:02:16;;;;;;;6.35;4.47;;;15.80;99.90;;;;;;4938069;28;20042;-71
2023/07/23 04:04:43;;;;;;;5.55;3.55;;;15.80;99.90;;;;;;4940459;28;20437;-72
2023/07/23 04:07:09;;;;;;;6.50;4.15;;;15.90;99.90;;;;;;4956424;28;20038;-72
2023/07/23 04:09:37;;;;;;;5.75;3.92;;;15.90;99.90;;;;;;4938846;28;20046;-73
2023/07/23 04:12:04;;;;;;;3.90;3.47;;;15.80;99.90;;;;;;4922685;28;20478;-71
2023/07/23 04:14:31;;;;;;;6.22;4.18;;;15.80;99.90;;;;;;4956425;28;20074;-72
2023/07/23 04:16:58;;;;;;;5.20;3.70;;;15.90;99.90;;;;;;4910588;28;20059;-72
2023/07/23 04:19:24;;;;;;;6.28;4.60;;;15.90;99.90;;;;;;4940690;28;20047;-72
2023/07/23 04:21:51;;;;;;;7.25;5.07;;;15.90;99.90;;;;;;4925507;28;20049;-72
2023/07/23 04:24:18;;;;;;;5.70;4.40;;;15.90;99.90;;;;;;4940773;28;20031;-72
2023/07/23 04:26:45;;;;;;;5.10;4.07;;;15.90;99.90;;;;;;4941302;28;20031;-72
2023/07/23 04:29:11;;;;;;;5.82;4.38;;;15.90;99.90;;;;;;4940150;28;20038;-71
2023/07/23 04:31:38;;;;;;;4.20;3.75;;;15.90;99.90;;;;;;4911538;28;20042;-73
2023/07/23 04:34:04;;;;;;;5.80;3.78;;;15.90;99.90;;;;;;4941067;28;20134;-72
2023/07/23 04:36:31;;;;;;;3.92;3.03;;;16.00;99.90;;;;;;4925992;28;20042;-72
2023/07/23 04:39:00;;;;;;;5.43;4.10;;;15.90;99.90;;;;;;4941210;28;20037;-72
2023/07/23 04:41:27;;;;;;;5.97;3.72;;;16.00;99.90;;;;;;4942627;28;20485;-72
2023/07/23 04:43:53;;;;;;;4.82;3.72;;;15.90;99.90;;;;;;4957664;28;20035;-72
2023/07/23 04:46:20;;;;;;;5.13;3.55;;;16.00;99.90;;;;;;4958714;28;20031;-72
2023/07/23 04:48:46;;;;;;;7.50;4.45;;;16.00;99.90;;;;;;4940548;28;20031;-72
2023/07/23 04:51:12;;;;;;;5.05;3.95;;;16.00;99.90;;;;;;4960542;28;20057;-73
2023/07/23 04:53:39;;;;;;;5.75;4.13;;;16.10;99.90;;;;;;4941857;28;20414;-73
2023/07/23 04:56:06;;;;;;;5.38;4.40;;;16.10;99.90;;;;;;4942319;28;20393;-72
2023/07/23 04:58:33;;;;;;;6.05;4.50;;;16.20;99.90;;;;;;4939942;28;20422;-72
2023/07/23 05:01:10;;;;;;;6.25;4.97;;;16.20;99.90;;;;;;4957206;28;20058;-72
2023/07/23 05:03:37;;;;;;;6.72;4.95;;;16.30;99.90;;;;;;4940018;28;20441;-72
2023/07/23 05:06:04;;;;;;;5.18;3.97;;;16.30;99.90;;;;;;4941122;28;20030;-71
2023/07/23 05:08:32;;;;;;;5.60;4.43;;;16.40;99.90;;;;;;4958318;28;20045;-72
2023/07/23 05:11:00;;;;;;;7.05;4.38;;;16.40;99.90;;;;;;4940430;28;20038;-73
2023/07/23 05:13:28;;;;;;;10.40;4.60;;;16.50;99.90;;;;;;4925099;28;21339;-72
2023/07/23 05:15:55;;;;;;;6.45;3.78;;;16.50;99.90;;;;;;4941453;28;20039;-72
2023/07/23 05:18:23;;;;;;;7.85;4.65;;;16.50;99.90;;;;;;4942925;28;20050;-72
2023/07/23 05:20:50;;;;;;;4.90;3.22;;;16.50;99.90;;;;;;4957242;28;20041;-73
2023/07/23 05:23:17;;;;;;;5.70;3.17;;;16.60;99.90;;;;;;4937904;28;20081;-72
2023/07/23 05:25:44;;;;;;;5.10;3.00;;;16.60;99.90;;;;;;4926676;28;20034;-71
2023/07/23 05:28:11;;;;;;;3.83;3.08;;;16.60;99.90;;;;;;4958770;28;20042;-71
2023/07/23 05:30:38;;;;;;;6.30;3.83;;;16.60;99.90;;;;;;4940299;28;20037;-72
2023/07/23 05:33:05;;;;;;;6.00;3.55;;;16.70;99.90;;;;;;4939389;28;20046;-71
2023/07/23 05:35:31;;;;;;;3.83;2.70;;;16.70;99.90;;;;;;4941593;28;20039;-73
2023/07/23 05:37:58;;;;;;;5.90;3.30;;;16.70;99.90;;;;;;4957710;28;20048;-72
2023/07/23 05:40:24;;;;;;;5.95;4.00;;;16.70;99.90;;;;;;4939584;28;20034;-72
2023/07/23 05:42:55;;;;;;;4.25;2.72;;;16.70;99.90;;;;;;4957613;28;20043;-71
2023/07/23 05:45:22;;;;;;;3.60;2.80;;;16.70;99.90;;;;;;4956999;28;20035;-72
2023/07/23 05:47:48;;;;;;;5.72;3.67;;;16.80;99.90;;;;;;4909299;28;20034;-72
2023/07/23 05:50:15;;;;;;;4.43;3.53;;;16.80;99.90;;;;;;4941936;28;20031;-73
2023/07/23 05:52:42;;;;;;;4.65;3.00;;;16.80;99.90;;;;;;4924792;28;20050;-73
2023/07/23 05:55:09;;;;;;;6.25;4.25;;;16.90;99.90;;;;;;4940850;28;20043;-72
2023/07/23 05:57:35;;;;;;;5.35;3.40;;;16.90;99.90;;;;;;4957416;28;20034;-72
2023/07/23 06:00:03;;;;;;;5.40;3.28;;;16.90;99.90;;;;;;4956314;28;20034;-72
2023/07/23 06:02:38;;;;;;;5.82;3.65;;;16.90;99.90;;;;;;4938837;28;20490;-74
2023/07/23 06:05:04;;;;;;;5.32;3.58;;;16.90;99.90;;;;;;4940475;28;20031;-73
2023/07/23 06:07:31;;;;;;;5.13;3.38;;;16.90;99.90;;;;;;4909079;28;20477;-73
2023/07/23 06:09:58;;;;;;;5.65;3.10;;;16.90;99.90;;;;;;4924587;28;20041;-72
2023/07/23 06:12:25;;;;;;;7.32;4.00;;;16.90;99.90;;;;;;4940573;28;20058;-72
2023/07/23 06:14:51;;;;;;;5.35;3.88;;;16.80;99.90;;;;;;4925393;28;20983;-73
2023/07/23 06:17:18;;;;;;;5.38;3.15;;;16.90;99.90;;;;;;4942113;28;20035;-72
2023/07/23 06:19:45;;;;;;;4.60;3.20;;;16.90;99.90;;;;;;4939973;28;20027;-71
2023/07/23 06:22:12;;;;;;;5.43;3.83;;;17.00;99.90;;;;;;4960588;28;20047;-72
2023/07/23 06:24:38;;;;;;;6.10;3.22;;;17.00;99.90;;;;;;4924880;28;20046;-72
2023/07/23 06:27:05;;;;;;;5.72;3.47;;;17.10;99.90;;;;;;4943636;28;20038;-72
2023/07/23 06:29:32;;;;;;;4.30;3.47;;;17.10;99.90;;;;;;4961713;28;20027;-73
2023/07/23 06:32:00;;;;;;;5.78;3.47;;;17.10;99.90;;;;;;4961606;28;20660;-74
2023/07/23 06:34:26;;;;;;;3.30;2.75;;;17.10;99.90;;;;;;4927849;28;20043;-72
2023/07/23 06:36:53;;;;;;;4.00;3.20;;;17.10;99.90;;;;;;4942633;28;20315;-71
2023/07/23 06:39:20;;;;;;;4.40;3.25;;;17.20;99.90;;;;;;4926400;28;20038;-72
2023/07/23 06:41:47;;;;;;;4.35;3.10;;;17.10;99.90;;;;;;4926130;28;20038;-72
2023/07/23 06:44:14;;;;;;;4.50;2.88;;;17.10;99.90;;;;;;4940705;28;20477;-72
2023/07/23 06:46:41;;;;;;;3.92;2.80;;;17.10;99.90;;;;;;4941871;28;20034;-72
2023/07/23 06:49:08;;;;;;;4.03;2.97;;;17.10;99.90;;;;;;4937495;28;20038;-73
2023/07/23 06:51:34;;;;;;;5.40;2.72;;;17.10;99.90;;;;;;4955955;28;20034;-73
2023/07/23 06:54:00;;;;;;;4.90;3.47;;;17.10;99.90;;;;;;4937182;28;20469;-73
2023/07/23 06:56:27;;;;;;;6.32;3.80;;;17.00;99.90;;;;;;4926212;28;20070;-73
2023/07/23 06:58:54;;;;;;;3.85;3.25;;;17.00;99.90;;;;;;4956705;28;20038;-73
2023/07/23 07:01:22;;;;;;;5.05;4.00;;;17.00;99.90;;;;;;4936303;28;20035;-73
2023/07/23 07:03:48;;;;;;;5.10;3.30;;;17.00;99.90;;;;;;4953446;28;20516;-72
2023/07/23 07:06:15;;;;;;;5.72;3.28;;;17.00;99.90;;;;;;4924481;28;20027;-73
2023/07/23 07:08:43;;;;;;;5.82;3.42;;;16.90;99.90;;;;;;4922072;28;20417;-73
2023/07/23 07:11:10;;;;;;;6.40;4.18;;;16.90;99.90;;;;;;4953968;28;20034;-73
2023/07/23 07:13:38;;;;;;;6.03;3.70;;;16.90;99.90;;;;;;4955103;28;20030;-74
2023/07/23 07:16:05;;;;;;;6.10;4.15;;;16.90;99.90;;;;;;4955139;28;20355;-73
2023/07/23 07:18:32;;;;;;;5.82;3.90;;;16.90;99.90;;;;;;4954473;28;21342;-73
2023/07/23 07:21:00;;;;;;;4.65;3.33;;;16.90;99.90;;;;;;4921874;28;20042;-72
2023/07/23 07:23:27;;;;;;;6.40;3.83;;;16.80;99.90;;;;;;4922931;28;20035;-73
2023/07/23 07:25:55;;;;;;;5.57;3.88;;;16.80;99.90;;;;;;4938643;28;20030;-72
2023/07/23 07:28:23;;;;;;;5.88;3.80;;;16.80;99.90;;;;;;4935848;28;20027;-72
2023/07/23 07:30:50;;;;;;;4.38;3.40;;;16.80;99.90;;;;;;4935896;28;20481;-72
2023/07/23 07:33:16;;;;;;;4.63;3.00;;;16.80;99.90;;;;;;4937567;28;20037;-73
2023/07/23 07:35:43;;;;;;;6.13;4.00;;;16.70;99.90;;;;;;4935056;28;20474;-73
2023/07/23 07:38:10;;;;;;;4.60;3.55;;;16.70;99.90;;;;;;4923213;28;20067;-72
2023/07/23 07:40:39;;;;;;;6.45;4.60;;;16.60;99.90;;;;;;4923030;28;20035;-73
2023/07/23 07:43:06;;;;;;;7.88;4.72;;;16.60;99.90;;;;;;4935357;28;20240;-73
2023/07/23 07:45:32;;;;;;;6.85;3.80;;;16.60;99.90;;;;;;4937012;28;20049;-73
2023/07/23 07:47:59;;;;;;;5.78;4.05;;;16.50;99.90;;;;;;4951007;28;20030;-72
2023/07/23 07:50:25;;;;;;;4.97;4.03;;;16.50;99.90;;;;;;4941314;28;20026;-71
2023/07/23 07:52:52;;;;;;;8.63;4.10;;;16.50;99.90;;;;;;4956277;28;20038;-71
2023/07/23 07:55:19;;;;;;;5.57;4.25;;;16.50;99.90;;;;;;4942706;28;20034;-71
2023/07/23 07:57:45;;;;;;;7.45;4.55;;;16.40;99.90;;;;;;4942601;28;20042;-71
2023/07/23 08:00:12;;;;;;;4.25;3.80;;;16.40;99.90;;;;;;4928806;28;20487;-71
2023/07/23 08:02:42;;;;;;;4.47;3.28;;;16.40;99.90;;;;;;4959844;28;20162;-71
2023/07/23 08:05:09;;;;;;;4.03;3.55;;;16.40;99.90;;;;;;4942798;28;20393;-71
2023/07/23 08:07:36;;;;;;;6.03;4.25;;;16.40;99.90;;;;;;4958793;28;20039;-71
2023/07/23 08:10:03;;;;;;;7.20;4.22;;;16.40;99.90;;;;;;4941548;28;20030;-71
2023/07/23 08:12:30;;;;;;;6.35;4.00;;;16.40;99.90;;;;;;4959299;28;20035;-74
2023/07/23 08:14:58;;;;;;;6.43;4.00;;;16.40;99.90;;;;;;4942663;28;20393;-72
2023/07/23 08:17:25;;;;;;;6.18;4.55;;;16.40;99.90;;;;;;4926306;28;20035;-74
2023/07/23 08:19:51;;;;;;;8.57;5.47;;;16.40;99.90;;;;;;4943664;28;20544;-73
2023/07/23 08:22:18;;;;;;;5.15;3.75;;;16.40;99.90;;;;;;4958977;28;20043;-74
2023/07/23 08:24:45;;;;;;;9.20;4.88;;;16.40;99.90;;;;;;4943686;28;20046;-75
2023/07/23 08:27:15;;;;;;;6.55;5.13;;;16.40;99.90;;;;;;4958954;28;20046;-76
2023/07/23 08:29:45;;;;;;;7.40;4.57;;;16.40;99.90;;;;;;4942024;28;20034;-73
2023/07/23 08:32:16;;;;;;;7.78;4.70;;;16.50;99.90;;;;;;4901898;28;20034;-74
2023/07/23 08:34:43;;;;;;;16.67;10.30;;;16.50;99.90;;;;;;4958142;28;20399;-75
2023/07/23 08:37:11;;;;;;;23.60;12.95;;;16.60;99.90;;;;;;4959840;28;20424;-74
2023/07/23 08:39:37;;;;;;;16.90;10.57;;;16.70;99.90;;;;;;4942348;28;20046;-74
2023/07/23 08:42:22;;;;;;;9.13;5.97;;;16.70;99.90;;;;;;4926745;28;20042;-75
2023/07/23 08:45:46;;;;;;;14.55;9.45;;;16.70;99.90;;;;;;4941681;28;20049;-75
2023/07/23 08:48:20;;;;;;;8.10;5.32;;;16.70;99.90;;;;;;4940460;28;20532;-73
2023/07/23 08:50:48;;;;;;;6.50;4.72;;;16.70;99.90;;;;;;4957341;28;20038;-74
2023/07/23 08:53:17;;;;;;;5.82;4.25;;;16.60;99.90;;;;;;4958484;28;20610;-73
2023/07/23 08:55:47;;;;;;;8.45;4.63;;;16.70;99.90;;;;;;4942699;28;20059;-73
2023/07/23 08:58:19;;;;;;;6.28;4.25;;;16.70;99.90;;;;;;4941890;28;20146;-73
2023/07/23 09:00:47;;;;;;;5.93;4.43;;;16.70;99.90;;;;;;4951913;28;20027;-73
2023/07/23 09:03:20;;;;;;;5.47;4.10;;;16.70;99.90;;;;;;4941572;28;20301;-72
2023/07/23 09:05:46;;;;;;;7.35;4.72;;;16.70;99.90;;;;;;4941320;28;20043;-72
2023/07/23 09:08:13;;;;;;;6.22;4.75;;;16.80;99.90;;;;;;4941673;28;20062;-73
2023/07/23 09:10:40;;;;;;;7.95;4.80;;;16.80;99.90;;;;;;4939191;28;20450;-72
2023/07/23 09:13:14;;;;;;;7.03;4.78;;;16.90;99.90;;;;;;4957679;28;20030;-73
2023/07/23 09:15:41;;;;;;;5.30;3.65;;;16.90;99.90;;;;;;4939351;28;20540;-73
2023/07/23 09:18:08;;;;;;;5.40;4.55;;;16.90;99.90;;;;;;4940251;28;20027;-72
2023/07/23 09:20:35;;;;;;;6.45;4.53;;;16.90;99.90;;;;;;4958201;28;20399;-73
2023/07/23 09:23:08;;;;;;;7.45;4.25;;;17.00;99.90;;;;;;4941277;28;20042;-72
2023/07/23 09:25:34;;;;;;;7.80;4.60;;;17.10;99.90;;;;;;4941067;28;20529;-72
2023/07/23 09:28:01;;;;;;;4.25;3.40;;;17.10;99.90;;;;;;4956682;28;21911;-72
2023/07/23 09:30:28;;;;;;;8.30;4.50;;;17.20;99.90;;;;;;4925548;28;20504;-73
2023/07/23 09:33:01;;;;;;;4.55;3.42;;;17.20;99.90;;;;;;4957557;28;20035;-73
2023/07/23 09:35:31;;;;;;;4.30;3.28;;;17.30;99.90;;;;;;4956602;28;20030;-72
2023/07/23 09:37:58;;;;;;;4.03;2.80;;;17.30;99.90;;;;;;4940273;28;20065;-73
2023/07/23 09:40:35;;;;;;;4.25;3.13;;;17.30;99.90;;;;;;4941304;28;20396;-72
2023/07/23 09:43:02;;;;;;;4.40;3.38;;;17.30;99.90;;;;;;4957639;28;20207;-72
2023/07/23 09:45:30;;;;;;;3.60;2.63;;;17.30;99.90;;;;;;4938956;28;20332;-73
2023/07/23 09:48:01;;;;;;;4.47;3.47;;;17.40;99.90;;;;;;4938948;28;20038;-72
2023/07/23 09:50:28;;;;;;;3.85;2.85;;;17.40;99.90;;;;;;4938566;28;20045;-72
2023/07/23 09:52:55;;;;;;;4.43;2.55;;;17.40;99.90;;;;;;4938569;28;20046;-72
2023/07/23 09:55:23;;;;;;;3.30;2.17;;;17.40;99.90;;;;;;4923108;28;20038;-72
2023/07/23 09:57:51;;;;;;;3.63;2.30;;;17.50;99.90;;;;;;4939748;28;20393;-73
2023/07/23 10:00:19;;;;;;;5.38;2.47;;;17.50;99.90;;;;;;4937950;28;20038;-73
2023/07/23 10:02:48;;;;;;;4.13;2.25;;;17.50;99.90;;;;;;4958321;28;20046;-73
2023/07/23 10:05:17;;;;;;;3.92;2.30;;;17.50;99.90;;;;;;4938392;28;20031;-72
2023/07/23 10:07:47;;;;;;;3.97;2.58;;;17.50;99.90;;;;;;4939522;28;20512;-72
2023/07/23 10:10:15;;;;;;;3.03;2.13;;;17.50;99.90;;;;;;4923690;28;20058;-71
2023/07/23 10:12:42;;;;;;;3.13;2.35;;;17.50;99.90;;;;;;4954435;28;20035;-73
2023/07/23 10:15:09;;;;;;;4.78;2.92;;;17.50;99.90;;;;;;4943365;28;20034;-73
2023/07/23 10:17:40;;;;;;;3.33;2.40;;;17.50;99.90;;;;;;4952006;28;20039;-72
2023/07/23 10:20:10;;;;;;;4.63;2.47;;;17.60;99.90;;;;;;4916958;28;20553;-72
2023/07/23 10:22:39;;;;;;;2.47;1.88;;;17.70;99.90;;;;;;4928411;28;20076;-72
2023/07/23 10:25:32;;;;;;;2.65;1.77;;;17.70;99.90;;;;;;4915042;28;20488;-73
2023/07/23 10:28:07;;;;;;;3.03;2.25;;;17.80;99.90;;;;;;4929515;28;20030;-73
2023/07/23 10:30:36;;;;;;;2.53;1.70;;;17.80;99.90;;;;;;4931133;28;20501;-73
2023/07/23 10:33:10;;;;;;;2.28;1.65;;;17.80;99.90;;;;;;4928927;28;20540;-73
2023/07/23 10:35:53;;;;;;;2.28;1.70;;;17.80;99.90;;;;;;4935138;28;20460;-73
2023/07/23 10:38:23;;;;;;;2.33;1.20;;;17.90;99.90;;;;;;4949269;28;20516;-74
2023/07/23 10:40:50;;;;;;;2.05;1.35;;;17.80;99.90;;;;;;4900833;28;20067;-73
2023/07/23 10:43:17;;;;;;;2.40;1.27;;;17.90;99.90;;;;;;4932386;28;20050;-73
2023/07/23 10:46:03;;;;;;;2.15;1.30;;;17.90;99.90;;;;;;4938157;28;20046;-74
2023/07/23 16:47:30;;;;;;;1.98;1.40;;;23.20;99.90;;;;;;4885924;29;20045;-75
2023/07/23 16:49:57;;;;;;;2.35;1.50;;;23.20;99.90;;;;;;4885114;29;20036;-76
2023/07/23 16:52:26;;;;;;;4.60;3.13;;;23.10;99.90;;;;;;4879142;29;20059;-79
2023/07/23 16:54:54;;;;;;;3.17;2.20;;;23.00;99.90;;;;;;4853263;29;20040;-78
2023/07/23 16:57:21;;;;;;;4.95;3.05;;;22.70;99.90;;;;;;4879922;29;20037;-75
2023/07/23 16:59:48;;;;;;;4.03;2.03;;;22.20;99.90;;;;;;4879983;29;20040;-76
2023/07/23 17:02:18;;;;;;;2.63;2.10;;;21.70;99.90;;;;;;4886917;29;20044;-75
2023/07/23 17:04:46;;;;;;;3.20;2.20;;;21.40;99.90;;;;;;4887562;29;20490;-74
2023/07/23 17:07:12;;;;;;;2.28;1.33;;;21.10;99.90;;;;;;4852770;29;20043;-75
2023/07/23 17:09:39;;;;;;;2.50;1.40;;;21.00;99.90;;;;;;4883552;29;20024;-74
2023/07/23 17:12:06;;;;;;;2.42;1.70;;;20.90;99.90;;;;;;4882284;29;20035;-74
2023/07/23 17:14:32;;;;;;;1.75;1.40;;;20.90;99.90;;;;;;4869994;29;20033;-74
2023/07/23 17:17:01;;;;;;;2.60;1.98;;;20.90;99.90;;;;;;4885999;29;20033;-74
2023/07/23 17:19:28;;;;;;;3.78;2.65;;;20.90;99.90;;;;;;4884009;29;20025;-74
2023/07/23 17:21:54;;;;;;;2.28;1.88;;;20.90;99.90;;;;;;4865621;29;20040;-74
2023/07/23 17:24:21;;;;;;;4.32;2.42;;;20.90;99.90;;;;;;4884664;29;20408;-74
2023/07/23 17:26:47;;;;;;;2.55;1.55;;;20.70;99.90;;;;;;4879828;29;20041;-73
2023/07/23 17:29:13;;;;;;;3.08;2.38;;;20.70;99.90;;;;;;4883559;29;20059;-73
2023/07/23 17:31:40;;;;;;;3.97;2.45;;;20.70;99.90;;;;;;4853867;29;20395;-72
2023/07/23 17:34:06;;;;;;;3.10;2.05;;;20.70;99.90;;;;;;4855632;29;20388;-74
2023/07/23 17:36:32;;;;;;;3.35;2.55;;;20.60;99.90;;;;;;4885623;29;20040;-74
2023/07/23 17:38:59;;;;;;;2.92;2.03;;;20.60;99.90;;;;;;4882458;29;20041;-74
2023/07/23 17:41:25;;;;;;;3.72;3.05;;;20.60;99.90;;;;;;4886309;29;20029;-73
2023/07/23 17:43:51;;;;;;;2.00;1.67;;;20.50;99.90;;;;;;4884226;29;20032;-73
2023/07/23 17:46:17;;;;;;;3.45;2.70;;;20.50;99.90;;;;;;4852860;29;20075;-73
2023/07/23 17:48:44;;;;;;;2.83;2.47;;;20.50;99.90;;;;;;4885187;29;20063;-73
2023/07/23 17:51:11;;;;;;;2.90;2.60;;;20.40;99.90;;;;;;4885799;29;20035;-73
2023/07/23 17:53:38;;;;;;;3.15;2.80;;;20.40;99.90;;;;;;4865397;29;20043;-74
2023/07/23 17:56:05;;;;;;;3.60;2.75;;;20.40;99.90;;;;;;4865957;29;20037;-73
2023/07/23 17:58:31;;;;;;;3.05;2.50;;;20.30;99.90;;;;;;4867303;29;20044;-73
2023/07/23 18:00:57;;;;;;;3.20;2.58;;;20.30;99.90;;;;;;4886962;29;20037;-73
2023/07/23 18:03:24;;;;;;;4.38;2.97;;;20.20;99.90;;;;;;4883349;29;20033;-74
2023/07/23 18:05:51;;;;;;;2.67;2.40;;;20.20;99.90;;;;;;4851302;29;20047;-74
2023/07/23 18:08:18;;;;;;;2.47;2.00;;;20.10;99.90;;;;;;4851116;29;20040;-73
2023/07/23 18:10:45;;;;;;;2.90;2.60;;;20.20;99.90;;;;;;4880169;29;20028;-72
2023/07/23 18:13:11;;;;;;;2.83;2.13;;;20.20;99.90;;;;;;4866419;29;20036;-74
2023/07/23 18:15:37;;;;;;;3.97;3.08;;;20.20;99.90;;;;;;4872618;29;20036;-75
2023/07/23 18:18:04;;;;;;;2.45;1.98;;;20.20;99.90;;;;;;4884893;29;20036;-75
2023/07/23 18:20:30;;;;;;;3.20;2.50;;;20.20;99.90;;;;;;4898428;29;20060;-73
2023/07/23 18:22:57;;;;;;;4.10;2.40;;;20.20;99.90;;;;;;4899364;29;20047;-77
2023/07/23 18:25:23;;;;;;;3.47;2.85;;;20.20;99.90;;;;;;4905974;29;20041;-77
2023/07/23 18:27:51;;;;;;;3.78;2.92;;;20.10;99.90;;;;;;4869637;29;20048;-75
2023/07/23 18:30:17;;;;;;;2.70;2.20;;;20.10;99.90;;;;;;4887501;29;20056;-76
2023/07/23 18:32:44;;;;;;;3.80;2.60;;;20.10;99.90;;;;;;4883387;29;20341;-76
2023/07/23 18:35:10;;;;;;;2.70;2.00;;;20.10;99.90;;;;;;4865265;29;20043;-74
2023/07/23 18:37:36;;;;;;;3.67;2.25;;;20.00;99.90;;;;;;4883436;29;20052;-76
2023/07/23 18:40:03;;;;;;;2.35;1.70;;;20.00;99.90;;;;;;4872411;29;20399;-77
2023/07/23 18:42:30;;;;;;;3.65;2.30;;;20.10;99.90;;;;;;4866301;29;20393;-75
2023/07/23 18:44:57;;;;;;;2.85;2.50;;;20.00;99.90;;;;;;4893257;29;20047;-76
2023/07/23 18:47:23;;;;;;;2.45;2.20;;;20.00;99.90;;;;;;4876065;29;20048;-77